ESOK

Karlstad Airport

Karlstad, Sweden
METAR ESOK 200720Z 05005KT 9999 OVC024 M07/M08 Q1028
Observed Flight Rules
Feb-20 @ 07:20 UTC (11 minutes ago) Marginal Visual Flight Rules
Wind Visibility Clouds
50° at 5 knots 10,000+ meters
  • Overcast at 2,400' AGL
Temperatures Readings
Current -7°C / 19°F
Dewpoint -8°C / 18°F
Humidity 93%
Altimeter 30.35" Hg
Pressure 1028 hPa
Elevation 107
METAR ESOK 200720Z 05005KT 9999 OVC024 M07/M08 Q1028
Observed Flight Rules
Feb-20 @ 07:20 UTC
(11 minutes ago)
MVFR
Wind Visibility
50° at 5 knots 10,000+ meters
Clouds
  • Overcast at 2,400' AGL
Temperature Dewpoint
-7°C / 19°F -8°C / 18°F
Humidity Altimeter Pressure
93% 30.35" Hg 1028 hPa